createdAt,value
2022-11-15T00:00:40.798Z,17.4
2022-11-15T00:10:48.718Z,17.3
2022-11-15T00:20:56.903Z,17.3
2022-11-15T00:31:04.881Z,17.2
2022-11-15T00:41:12.853Z,17.1
2022-11-15T00:51:20.890Z,17
2022-11-15T01:01:29.053Z,16.9
2022-11-15T01:11:37.048Z,16.8
2022-11-15T01:21:45.266Z,16.7
2022-11-15T01:31:53.439Z,16.7
2022-11-15T01:42:02.748Z,16.6
2022-11-15T01:52:05.500Z,16.7
2022-11-15T02:02:13.782Z,16.5
2022-11-15T02:12:21.894Z,16.4
2022-11-15T02:22:29.392Z,16.3
2022-11-15T02:32:37.463Z,16.3
2022-11-15T02:42:45.400Z,16.3
2022-11-15T02:52:53.413Z,16.4
2022-11-15T03:03:01.713Z,16
2022-11-15T03:13:09.731Z,16.1
2022-11-15T03:23:10.108Z,15.9
2022-11-15T03:33:18.209Z,15.9
2022-11-15T03:43:26.270Z,16.4
2022-11-15T03:53:33.418Z,16
2022-11-15T04:03:41.939Z,15.8
2022-11-15T04:13:49.945Z,15.8
2022-11-15T04:23:57.945Z,16
2022-11-15T04:34:06.108Z,15.9
2022-11-15T04:44:14.203Z,15.9
2022-11-15T04:54:22.401Z,15.9
2022-11-15T05:04:30.447Z,15.8
2022-11-15T05:14:39.276Z,15.7
2022-11-15T05:24:40.070Z,15.9
2022-11-15T05:34:48.261Z,15.9
2022-11-15T05:44:56.415Z,15.9
2022-11-15T05:55:04.463Z,15.7
2022-11-15T06:05:12.506Z,15.8
2022-11-15T06:15:20.607Z,15.8
2022-11-15T06:25:28.680Z,15.9
2022-11-15T06:35:36.818Z,15.9
2022-11-15T06:45:45.119Z,15.8
2022-11-15T06:55:55.557Z,15.9
2022-11-15T07:06:07.029Z,15.8
2022-11-15T07:16:08.944Z,15.9
2022-11-15T07:26:17.052Z,16.1
2022-11-15T07:36:25.209Z,16.3
2022-11-15T07:46:33.331Z,16.6
2022-11-15T07:56:41.565Z,16.8
2022-11-15T08:06:41.968Z,16.9
2022-11-15T08:16:51.130Z,16.7
2022-11-15T08:26:59.058Z,16.8
2022-11-15T08:37:07.075Z,17.2
2022-11-15T08:47:08.024Z,17.6
2022-11-15T08:57:16.183Z,18.1
2022-11-15T09:07:25.839Z,18.3
2022-11-15T09:17:33.908Z,18.7
2022-11-15T09:27:41.982Z,19.2
2022-11-15T09:37:43.870Z,19.4
2022-11-15T09:47:51.065Z,19.7
2022-11-15T09:58:00.516Z,20.2
2022-11-15T10:08:08.733Z,20.5
2022-11-15T10:18:16.973Z,20.7
2022-11-15T10:28:25.020Z,21
2022-11-15T10:38:34.667Z,21.4
2022-11-15T10:48:35.393Z,21.6
2022-11-15T10:58:36.225Z,21.7
2022-11-15T11:08:37.368Z,21.8
2022-11-15T11:18:46.789Z,21.9
2022-11-15T11:28:55.025Z,22.1
2022-11-15T11:39:03.256Z,22.1
2022-11-15T11:49:11.416Z,22.4
2022-11-15T11:59:19.504Z,22.6
2022-11-15T12:09:30.519Z,22.7
2022-11-15T12:19:28.767Z,22.8
2022-11-15T12:29:37.996Z,22.7
2022-11-15T12:39:47.814Z,22.6
2022-11-15T12:49:56.110Z,22.6
2022-11-15T13:00:04.137Z,22.9
2022-11-15T13:10:04.558Z,23.1
2022-11-15T13:20:13.212Z,23
2022-11-15T13:30:21.337Z,22.9
2022-11-15T13:40:30.440Z,23
2022-11-15T13:50:38.518Z,22.9
2022-11-15T14:00:47.965Z,23
2022-11-15T14:10:53.111Z,22.7
2022-11-15T14:30:59.582Z,22
2022-11-15T14:41:06.275Z,21.8
2022-11-15T14:51:05.392Z,22.2
2022-11-15T15:01:05.917Z,22.3
2022-11-15T15:11:14.052Z,22.1
2022-11-15T15:21:22.300Z,21.5
2022-11-15T15:31:29.703Z,21.5
2022-11-15T15:41:37.906Z,21.6
2022-11-15T15:51:45.509Z,22
2022-11-15T16:01:58.691Z,22.3
2022-11-15T16:22:15.789Z,22.1
2022-11-15T16:32:18.106Z,21.6
2022-11-15T16:42:16.831Z,21.2
2022-11-15T17:22:32.349Z,21.5
2022-11-15T17:32:40.837Z,21.3
2022-11-15T17:42:49.144Z,21.2
2022-11-15T17:52:57.293Z,21.1
2022-11-15T18:03:05.807Z,21.2
2022-11-15T18:13:13.995Z,21.3
2022-11-15T18:23:22.103Z,21.1
2022-11-15T18:33:30.230Z,21
2022-11-15T18:43:37.280Z,21.1
2022-11-15T18:53:46.082Z,21.1
2022-11-15T19:03:55.244Z,20.9
2022-11-15T19:13:57.423Z,20.9
2022-11-15T19:24:06.781Z,20.8
2022-11-15T19:34:16.294Z,20.7
2022-11-15T19:44:17.465Z,20.6
2022-11-15T19:54:19.726Z,20.3
2022-11-15T20:04:27.136Z,20
2022-11-15T20:14:26.762Z,19.6
2022-11-15T20:24:26.537Z,19.6
2022-11-15T20:34:27.259Z,19.5
2022-11-15T20:44:35.184Z,19.4
2022-11-15T20:54:43.290Z,19.3
2022-11-15T21:04:51.335Z,19.1
2022-11-15T21:14:59.273Z,18.9
2022-11-15T21:25:07.296Z,18.7
2022-11-15T21:35:15.329Z,18.6
2022-11-15T21:45:23.293Z,18.5
2022-11-15T21:55:31.403Z,18.4
2022-11-15T22:05:39.599Z,18.5
2022-11-15T22:15:53.390Z,18.5
2022-11-15T22:25:51.326Z,18.6
2022-11-15T22:35:59.466Z,18.7
2022-11-15T22:46:08.200Z,18.9
2022-11-15T22:56:20.106Z,18.8
2022-11-15T23:06:26.187Z,18.6
2022-11-15T23:16:35.539Z,18.5
2022-11-15T23:26:43.467Z,18.3
2022-11-15T23:36:51.453Z,18.5
2022-11-15T23:46:59.514Z,18.6
2022-11-15T23:57:07.492Z,18.5
